createdAt,value
2022-11-22T00:04:23.925Z,56.36
2022-11-22T00:09:27.662Z,56.26
2022-11-22T00:14:29.901Z,56.72
2022-11-22T00:19:32.100Z,56.60
2022-11-22T00:24:34.983Z,56.22
2022-11-22T00:29:37.083Z,55.73
2022-11-22T00:34:39.083Z,55.63
2022-11-22T00:39:41.116Z,56.19
2022-11-22T00:44:43.199Z,56.26
2022-11-22T00:49:45.264Z,56.28
2022-11-22T00:54:53.197Z,54.90
2022-11-22T00:59:56.961Z,54.34
2022-11-22T01:04:58.997Z,54.52
2022-11-22T01:10:01.071Z,54.80
2022-11-22T01:15:04.035Z,55.26
2022-11-22T01:20:06.944Z,54.68
2022-11-22T01:25:09.728Z,53.98
2022-11-22T01:30:12.390Z,54.06
2022-11-22T01:35:14.600Z,54.08
2022-11-22T01:40:16.793Z,53.54
2022-11-22T01:45:30.941Z,54.32
2022-11-22T01:50:36.981Z,55.15
2022-11-22T01:55:39.805Z,54.99
2022-11-22T02:00:43.889Z,54.56
2022-11-22T02:05:47.431Z,53.68
2022-11-22T02:10:53.523Z,54.38
2022-11-22T02:15:55.662Z,53.32
2022-11-22T02:20:58.931Z,52.64
2022-11-22T02:26:02.565Z,52.82
2022-11-22T02:31:04.563Z,52.59
2022-11-22T02:36:06.921Z,52.34
2022-11-22T02:41:12.877Z,51.94
2022-11-22T02:46:20.832Z,51.71
2022-11-22T02:51:22.832Z,51.84
2022-11-22T02:56:24.895Z,51.27
2022-11-22T03:01:26.981Z,51.45
2022-11-22T03:06:29.409Z,51.32
2022-11-22T03:11:31.430Z,51.51
2022-11-22T03:16:33.475Z,51.00
2022-11-22T03:21:35.795Z,50.71
2022-11-22T03:26:38.538Z,50.86
2022-11-22T03:31:40.587Z,51.55
2022-11-22T03:36:42.755Z,51.63
2022-11-22T03:41:44.802Z,52.06
2022-11-22T03:46:46.945Z,51.84
2022-11-22T03:51:48.944Z,51.58
2022-11-22T03:56:50.996Z,51.81
2022-11-22T04:01:53.117Z,51.77
2022-11-22T04:06:55.326Z,51.96
2022-11-22T04:11:57.334Z,51.67
2022-11-22T04:16:59.465Z,52.24
2022-11-22T04:22:01.521Z,51.60
2022-11-22T04:27:03.560Z,51.56
2022-11-22T04:32:24.092Z,51.17
2022-11-22T04:37:26.296Z,51.49
2022-11-22T04:42:46.884Z,51.88
2022-11-22T04:48:01.265Z,51.35
2022-11-22T04:53:03.589Z,50.30
2022-11-22T04:58:05.731Z,50.50
2022-11-22T05:03:08.583Z,50.39
2022-11-22T05:08:11.247Z,50.25
2022-11-22T05:13:13.250Z,50.34
2022-11-22T05:18:15.303Z,49.38
2022-11-22T05:23:36.761Z,49.77
2022-11-22T05:28:39.549Z,50.41
2022-11-22T05:33:43.541Z,50.68
2022-11-22T05:38:45.856Z,51.04
2022-11-22T05:43:47.929Z,50.88
2022-11-22T05:48:50.144Z,51.49
2022-11-22T05:53:52.310Z,52.05
2022-11-22T05:58:54.565Z,52.55
2022-11-22T06:03:56.759Z,51.65
2022-11-22T06:08:59.963Z,50.77
2022-11-22T06:14:03.647Z,51.05
2022-11-22T06:19:05.815Z,51.91
2022-11-22T06:24:08.309Z,52.29
2022-11-22T06:29:10.563Z,51.09
2022-11-22T06:34:13.203Z,51.06
2022-11-22T06:39:15.220Z,50.90
2022-11-22T06:44:17.328Z,51.10
2022-11-22T06:49:19.336Z,50.59
2022-11-22T06:54:21.374Z,50.41
2022-11-22T06:59:23.416Z,50.82
2022-11-22T07:04:25.736Z,50.73
2022-11-22T07:09:28.306Z,50.44
2022-11-22T07:14:31.263Z,50.77
2022-11-22T07:19:33.466Z,50.98
2022-11-22T07:24:35.520Z,51.71
2022-11-22T07:29:37.656Z,52.28
2022-11-22T07:34:39.740Z,50.90
2022-11-22T07:39:41.769Z,51.36
2022-11-22T07:44:43.808Z,51.48
2022-11-22T07:49:45.980Z,51.48
2022-11-22T07:54:48.067Z,51.01
2022-11-22T07:59:50.119Z,50.38
2022-11-22T08:04:52.853Z,50.76
2022-11-22T08:09:54.900Z,50.66
2022-11-22T08:14:57.505Z,51.50
2022-11-22T08:19:59.659Z,51.48
2022-11-22T08:25:02.072Z,51.66
2022-11-22T08:30:04.493Z,51.66
2022-11-22T08:35:07.087Z,51.36
2022-11-22T08:40:09.753Z,51.66
2022-11-22T08:45:11.907Z,51.41
2022-11-22T08:50:14.068Z,51.06
2022-11-22T08:55:16.321Z,51.08
2022-11-22T09:00:18.472Z,51.00
2022-11-22T09:05:20.604Z,50.93
2022-11-22T09:10:22.755Z,50.69
2022-11-22T09:15:24.980Z,51.48
2022-11-22T09:20:27.166Z,50.92
2022-11-22T09:25:29.193Z,52.25
2022-11-22T09:30:31.399Z,51.25
2022-11-22T09:35:33.515Z,51.13
2022-11-22T09:40:36.516Z,51.22
2022-11-22T09:45:53.472Z,50.94
2022-11-22T09:51:12.887Z,51.31
2022-11-22T09:56:20.256Z,51.17
2022-11-22T10:01:39.301Z,50.45
2022-11-22T10:07:03.016Z,50.99
2022-11-22T10:12:22.698Z,51.44
2022-11-22T10:17:24.706Z,51.78
2022-11-22T10:22:30.621Z,51.33
2022-11-22T10:27:33.249Z,51.53
2022-11-22T10:32:43.313Z,51.25
2022-11-22T10:37:48.207Z,50.73
2022-11-22T10:42:56.731Z,51.13
2022-11-22T10:48:26.781Z,51.26
2022-11-22T10:53:55.509Z,51.13
2022-11-22T10:59:32.677Z,50.97
2022-11-22T11:04:40.261Z,51.77
2022-11-22T11:10:11.624Z,50.64
2022-11-22T11:15:17.335Z,50.26
2022-11-22T11:20:35.545Z,50.05
2022-11-22T11:25:40.880Z,50.10
2022-11-22T11:30:46.230Z,50.13
2022-11-22T11:35:48.639Z,49.89
2022-11-22T11:40:50.739Z,50.69
2022-11-22T11:45:53.271Z,49.98
2022-11-22T11:51:16.036Z,50.22
2022-11-22T11:56:33.939Z,50.22
2022-11-22T12:01:38.962Z,50.81
2022-11-22T12:06:41.353Z,50.66
2022-11-22T12:11:49.378Z,50.45
2022-11-22T12:16:58.013Z,50.32
2022-11-22T12:22:48.966Z,48.82
2022-11-22T12:27:52.223Z,48.75
2022-11-22T12:33:05.949Z,49.23
2022-11-22T12:38:18.821Z,48.77
2022-11-22T12:43:36.989Z,49.75
2022-11-22T12:49:11.731Z,49.21
2022-11-22T12:54:22.793Z,49.12
2022-11-22T12:59:57.067Z,48.63
2022-11-22T13:05:15.702Z,48.04
2022-11-22T13:10:30.765Z,47.94
2022-11-22T13:15:36.787Z,48.48
2022-11-22T13:20:45.199Z,48.06
2022-11-22T13:26:16.185Z,48.25
2022-11-22T13:31:20.262Z,48.24
2022-11-22T13:36:28.428Z,47.75
2022-11-22T13:41:38.087Z,47.30
2022-11-22T13:47:21.515Z,47.84
2022-11-22T13:52:25.415Z,47.79
2022-11-22T13:57:27.304Z,48.80
2022-11-22T14:02:29.452Z,47.65
2022-11-22T14:07:38.896Z,47.55
2022-11-22T14:12:43.940Z,47.94
2022-11-22T14:18:07.305Z,46.55
2022-11-22T14:23:38.645Z,46.76
2022-11-22T14:29:11.975Z,46.73
2022-11-22T14:34:20.881Z,47.25
2022-11-22T14:39:44.760Z,47.33
2022-11-22T14:44:49.589Z,46.98
2022-11-22T14:49:54.580Z,46.34
2022-11-22T14:55:03.015Z,47.14
2022-11-22T15:00:13.084Z,46.37
2022-11-22T15:09:11.957Z,46.95
2022-11-22T15:11:07.681Z,45.82
2022-11-22T15:59:58.991Z,46.12
2022-11-22T16:06:04.368Z,46.09
2022-11-22T16:10:39.368Z,46.08
2022-11-22T16:15:41.337Z,46.99
2022-11-22T16:21:01.733Z,47.43
2022-11-22T16:26:19.396Z,47.10
2022-11-22T16:31:31.867Z,47.92
2022-11-22T16:36:34.374Z,46.61
2022-11-22T16:41:36.451Z,47.45
2022-11-22T16:46:40.152Z,47.55
2022-11-22T16:51:44.924Z,47.14
2022-11-22T16:56:47.301Z,47.37
2022-11-22T17:01:50.415Z,46.69
2022-11-22T17:06:52.590Z,46.14
2022-11-22T17:11:55.000Z,45.97
2022-11-22T17:16:57.053Z,45.25
2022-11-22T17:22:01.036Z,46.13
2022-11-22T17:27:02.864Z,46.45
2022-11-22T17:32:05.460Z,46.89
2022-11-22T17:37:13.787Z,47.07
2022-11-22T17:42:17.584Z,46.79
2022-11-22T17:47:19.682Z,47.03
2022-11-22T17:52:21.694Z,47.18
2022-11-22T17:57:23.766Z,47.20
2022-11-22T18:02:25.804Z,46.88
2022-11-22T18:07:30.969Z,46.97
2022-11-22T18:12:42.042Z,46.81
2022-11-22T18:17:44.631Z,47.82
2022-11-22T18:22:46.664Z,48.19
2022-11-22T18:27:48.837Z,48.30
2022-11-22T18:32:50.899Z,48.57
2022-11-22T18:37:53.186Z,48.80
2022-11-22T18:43:00.673Z,48.43
2022-11-22T18:48:02.855Z,49.07
2022-11-22T18:53:04.833Z,48.78
2022-11-22T18:58:06.853Z,49.15
2022-11-22T19:03:11.688Z,48.85
2022-11-22T19:08:13.678Z,48.73
2022-11-22T19:13:15.674Z,48.50
2022-11-22T19:18:19.936Z,48.88
2022-11-22T19:23:21.901Z,49.35
2022-11-22T19:28:30.339Z,49.54
2022-11-22T19:33:32.545Z,49.61
2022-11-22T19:38:34.735Z,49.31
2022-11-22T19:43:38.077Z,49.37
2022-11-22T19:48:45.551Z,49.71
2022-11-22T19:53:49.436Z,49.56
2022-11-22T19:58:56.234Z,49.73
2022-11-22T20:04:03.846Z,49.73
2022-11-22T20:09:12.778Z,49.42
2022-11-22T20:14:14.972Z,49.45
2022-11-22T20:19:17.060Z,49.38
2022-11-22T20:24:19.232Z,49.91
2022-11-22T20:29:23.052Z,49.92
2022-11-22T20:34:25.130Z,50.03
2022-11-22T20:39:27.169Z,49.77
2022-11-22T20:44:29.353Z,50.32
2022-11-22T20:49:32.176Z,50.68
2022-11-22T20:54:34.221Z,50.96
2022-11-22T20:59:36.307Z,50.82
2022-11-22T21:04:38.418Z,51.01
2022-11-22T21:09:40.438Z,51.04
2022-11-22T21:14:42.516Z,50.80
2022-11-22T21:19:44.555Z,50.75
2022-11-22T21:24:46.738Z,50.85
2022-11-22T21:29:48.770Z,51.44
2022-11-22T21:34:50.982Z,51.11
2022-11-22T21:39:53.048Z,51.27
2022-11-22T21:44:55.104Z,51.25
2022-11-22T21:49:57.148Z,51.52
2022-11-22T21:54:59.232Z,51.55
2022-11-22T22:00:01.346Z,51.57
2022-11-22T22:05:03.612Z,51.58
2022-11-22T22:10:06.270Z,51.68
2022-11-22T22:15:12.075Z,51.57
2022-11-22T22:20:14.184Z,51.72
2022-11-22T22:25:16.861Z,51.41
2022-11-22T22:30:19.143Z,51.22
2022-11-22T22:35:21.297Z,51.18
2022-11-22T22:40:23.295Z,51.22
2022-11-22T22:45:25.324Z,51.13
2022-11-22T22:50:27.368Z,51.07
2022-11-22T22:55:29.422Z,51.06
2022-11-22T23:00:31.463Z,51.09
2022-11-22T23:05:33.439Z,51.10
2022-11-22T23:10:35.540Z,51.32
2022-11-22T23:15:57.295Z,51.17
2022-11-22T23:21:02.232Z,51.34
2022-11-22T23:26:10.532Z,51.29
2022-11-22T23:31:16.712Z,51.34
2022-11-22T23:36:20.705Z,51.39
2022-11-22T23:41:24.949Z,51.34
2022-11-22T23:46:28.882Z,51.24
2022-11-22T23:51:31.455Z,51.29
2022-11-22T23:56:34.734Z,51.32
